sensor_id;sensor_type;location;lat;lon;timestamp;pressure;altitude;pressure_sealevel;temperature;humidity
51249;BME280;39642;47.556;18.728;2023-04-20T00:01:40;99520.59;;;20.27;41.90
51249;BME280;39642;47.556;18.728;2023-04-20T00:04:07;99518.88;;;20.26;41.91
51249;BME280;39642;47.556;18.728;2023-04-20T00:06:33;99518.03;;;20.26;41.90
51249;BME280;39642;47.556;18.728;2023-04-20T00:08:59;99513.59;;;20.26;41.88
51249;BME280;39642;47.556;18.728;2023-04-20T00:11:28;99503.91;;;20.27;41.83
51249;BME280;39642;47.556;18.728;2023-04-20T00:13:54;99500.38;;;20.26;41.80
51249;BME280;39642;47.556;18.728;2023-04-20T00:16:20;99500.38;;;20.26;41.78
51249;BME280;39642;47.556;18.728;2023-04-20T00:18:46;99497.75;;;20.26;41.81
51249;BME280;39642;47.556;18.728;2023-04-20T00:21:12;99499.53;;;20.26;41.80
51249;BME280;39642;47.556;18.728;2023-04-20T00:23:38;99505.66;;;20.26;41.78
51249;BME280;39642;47.556;18.728;2023-04-20T00:26:04;99503.03;;;20.26;41.83
51249;BME280;39642;47.556;18.728;2023-04-20T00:28:30;99499.53;;;20.26;41.77
51249;BME280;39642;47.556;18.728;2023-04-20T00:30:56;99503.97;;;20.25;41.77
51249;BME280;39642;47.556;18.728;2023-04-20T00:33:22;99513.59;;;20.26;41.80
51249;BME280;39642;47.556;18.728;2023-04-20T00:35:48;99516.25;;;20.26;41.78
51249;BME280;39642;47.556;18.728;2023-04-20T00:38:14;99514.47;;;20.27;41.75
51249;BME280;39642;47.556;18.728;2023-04-20T00:40:42;99515.41;;;20.26;41.75
51249;BME280;39642;47.556;18.728;2023-04-20T00:43:12;99516.25;;;20.26;41.71
51249;BME280;39642;47.556;18.728;2023-04-20T00:45:38;99515.41;;;20.26;41.69
51249;BME280;39642;47.556;18.728;2023-04-20T00:48:04;99510.12;;;20.26;41.67
51249;BME280;39642;47.556;18.728;2023-04-20T00:50:30;99515.41;;;20.26;41.73
51249;BME280;39642;47.556;18.728;2023-04-20T00:52:56;99511.06;;;20.25;41.68
51249;BME280;39642;47.556;18.728;2023-04-20T00:55:23;99519.84;;;20.25;41.67
51249;BME280;39642;47.556;18.728;2023-04-20T00:57:51;99510.97;;;20.26;41.75
51249;BME280;39642;47.556;18.728;2023-04-20T01:00:17;99510.97;;;20.26;41.73
51249;BME280;39642;47.556;18.728;2023-04-20T01:02:43;99510.97;;;20.26;41.67
51249;BME280;39642;47.556;18.728;2023-04-20T01:05:09;99515.41;;;20.26;41.75
51249;BME280;39642;47.556;18.728;2023-04-20T01:07:35;99508.31;;;20.26;41.71
51249;BME280;39642;47.556;18.728;2023-04-20T01:10:01;99510.12;;;20.26;41.63
51249;BME280;39642;47.556;18.728;2023-04-20T01:12:27;99508.31;;;20.26;41.64
51249;BME280;39642;47.556;18.728;2023-04-20T01:14:53;99503.91;;;20.27;41.53
51249;BME280;39642;47.556;18.728;2023-04-20T01:17:19;99517.97;;;20.27;41.66
51249;BME280;39642;47.556;18.728;2023-04-20T01:19:45;99517.97;;;20.27;41.56
51249;BME280;39642;47.556;18.728;2023-04-20T01:22:18;99516.16;;;20.28;41.52
51249;BME280;39642;47.556;18.728;2023-04-20T01:24:44;99511.72;;;20.28;41.60
51249;BME280;39642;47.556;18.728;2023-04-20T01:27:11;99512.59;;;20.29;41.59
51249;BME280;39642;47.556;18.728;2023-04-20T01:29:38;99509.06;;;20.28;41.57
51249;BME280;39642;47.556;18.728;2023-04-20T01:32:04;99506.44;;;20.28;41.52
51249;BME280;39642;47.556;18.728;2023-04-20T01:34:30;99502.09;;;20.27;41.43
51249;BME280;39642;47.556;18.728;2023-04-20T01:36:57;99506.44;;;20.28;41.44
51249;BME280;39642;47.556;18.728;2023-04-20T01:39:23;99491.53;;;20.27;41.43
51249;BME280;39642;47.556;18.728;2023-04-20T01:41:49;99497.66;;;20.28;41.40
51249;BME280;39642;47.556;18.728;2023-04-20T01:44:15;99493.31;;;20.27;41.37
51249;BME280;39642;47.556;18.728;2023-04-20T01:46:41;99492.38;;;20.28;41.45
51249;BME280;39642;47.556;18.728;2023-04-20T01:49:07;99502.09;;;20.27;41.36
51249;BME280;39642;47.556;18.728;2023-04-20T01:51:34;99507.38;;;20.27;41.37
51249;BME280;39642;47.556;18.728;2023-04-20T01:54:00;99507.38;;;20.27;41.21
51249;BME280;39642;47.556;18.728;2023-04-20T01:56:27;99510.03;;;20.27;41.29
51249;BME280;39642;47.556;18.728;2023-04-20T01:58:53;99506.53;;;20.27;41.37
51249;BME280;39642;47.556;18.728;2023-04-20T02:01:19;99501.25;;;20.27;41.37
51249;BME280;39642;47.556;18.728;2023-04-20T02:03:47;99505.66;;;20.26;41.26
51249;BME280;39642;47.556;18.728;2023-04-20T02:06:13;99506.53;;;20.27;41.27
51249;BME280;39642;47.556;18.728;2023-04-20T02:08:39;99507.38;;;20.27;41.33
51249;BME280;39642;47.556;18.728;2023-04-20T02:11:05;99498.59;;;20.27;41.26
51249;BME280;39642;47.556;18.728;2023-04-20T02:13:31;99506.53;;;20.27;41.27
51249;BME280;39642;47.556;18.728;2023-04-20T02:15:58;99500.38;;;20.26;41.28
51249;BME280;39642;47.556;18.728;2023-04-20T02:18:24;99493.31;;;20.27;41.19
51249;BME280;39642;47.556;18.728;2023-04-20T02:20:50;99493.41;;;20.25;41.23
51249;BME280;39642;47.556;18.728;2023-04-20T02:23:16;99494.25;;;20.26;41.01
51249;BME280;39642;47.556;18.728;2023-04-20T02:25:42;99497.84;;;20.25;41.29
51249;BME280;39642;47.556;18.728;2023-04-20T02:28:07;99503.03;;;20.26;41.22
51249;BME280;39642;47.556;18.728;2023-04-20T02:30:33;99500.50;;;20.25;41.23
51249;BME280;39642;47.556;18.728;2023-04-20T02:32:59;99498.69;;;20.25;41.32
51249;BME280;39642;47.556;18.728;2023-04-20T02:35:25;99490.75;;;20.25;41.29
51249;BME280;39642;47.556;18.728;2023-04-20T02:37:51;99498.69;;;20.25;41.29
51249;BME280;39642;47.556;18.728;2023-04-20T02:40:17;99497.00;;;20.24;41.39
51249;BME280;39642;47.556;18.728;2023-04-20T02:42:43;99499.66;;;20.24;41.29
51249;BME280;39642;47.556;18.728;2023-04-20T02:45:09;99497.00;;;20.24;41.30
51249;BME280;39642;47.556;18.728;2023-04-20T02:47:35;99505.66;;;20.26;41.22
51249;BME280;39642;47.556;18.728;2023-04-20T02:50:01;99508.31;;;20.26;41.08
51249;BME280;39642;47.556;18.728;2023-04-20T02:52:27;99509.28;;;20.25;41.17
51249;BME280;39642;47.556;18.728;2023-04-20T02:54:53;99511.84;;;20.27;41.22
51249;BME280;39642;47.556;18.728;2023-04-20T02:57:19;99515.31;;;20.27;41.12
51249;BME280;39642;47.556;18.728;2023-04-20T02:59:45;99511.84;;;20.27;41.04
51249;BME280;39642;47.556;18.728;2023-04-20T03:02:11;99516.16;;;20.28;41.11
51249;BME280;39642;47.556;18.728;2023-04-20T03:04:37;99517.97;;;20.27;41.09
51249;BME280;39642;47.556;18.728;2023-04-20T03:07:03;99510.88;;;20.28;40.75
51249;BME280;39642;47.556;18.728;2023-04-20T03:09:30;99517.88;;;20.29;40.83
51249;BME280;39642;47.556;18.728;2023-04-20T03:11:56;99508.16;;;20.29;40.80
51249;BME280;39642;47.556;18.728;2023-04-20T03:14:22;99507.31;;;20.29;40.80
51249;BME280;39642;47.556;18.728;2023-04-20T03:16:48;99508.22;;;20.28;41.01
51249;BME280;39642;47.556;18.728;2023-04-20T03:19:14;99513.44;;;20.29;40.82
51249;BME280;39642;47.556;18.728;2023-04-20T03:21:40;99515.22;;;20.29;40.95
51249;BME280;39642;47.556;18.728;2023-04-20T03:24:06;99514.34;;;20.28;40.80
51249;BME280;39642;47.556;18.728;2023-04-20T03:26:32;99509.06;;;20.28;40.88
51249;BME280;39642;47.556;18.728;2023-04-20T03:28:58;99515.22;;;20.29;40.61
51249;BME280;39642;47.556;18.728;2023-04-20T03:31:23;99515.22;;;20.29;40.67
51249;BME280;39642;47.556;18.728;2023-04-20T03:33:49;99509.06;;;20.28;40.45
51249;BME280;39642;47.556;18.728;2023-04-20T03:36:15;99515.22;;;20.29;40.37
51249;BME280;39642;47.556;18.728;2023-04-20T03:38:42;99519.66;;;20.28;40.49
51249;BME280;39642;47.556;18.728;2023-04-20T03:41:07;99514.34;;;20.28;40.50
51249;BME280;39642;47.556;18.728;2023-04-20T03:43:34;99526.66;;;20.29;40.44
51249;BME280;39642;47.556;18.728;2023-04-20T03:46:00;99524.94;;;20.28;40.63
51249;BME280;39642;47.556;18.728;2023-04-20T03:48:26;99530.22;;;20.28;40.33
51249;BME280;39642;47.556;18.728;2023-04-20T03:50:52;99526.72;;;20.28;40.43
51249;BME280;39642;47.556;18.728;2023-04-20T03:53:18;99530.22;;;20.28;40.58
51249;BME280;39642;47.556;18.728;2023-04-20T03:55:44;99529.37;;;20.28;40.33
51249;BME280;39642;47.556;18.728;2023-04-20T03:58:10;99530.22;;;20.28;40.31
51249;BME280;39642;47.556;18.728;2023-04-20T04:00:36;99539.13;;;20.27;40.36
51249;BME280;39642;47.556;18.728;2023-04-20T04:03:02;99528.53;;;20.27;40.54
51249;BME280;39642;47.556;18.728;2023-04-20T04:05:28;99530.34;;;20.27;40.70
51249;BME280;39642;47.556;18.728;2023-04-20T04:07:54;99532.97;;;20.27;40.67
51249;BME280;39642;47.556;18.728;2023-04-20T04:10:20;99532.09;;;20.26;40.45
51249;BME280;39642;47.556;18.728;2023-04-20T04:12:46;99526.81;;;20.26;40.54
51249;BME280;39642;47.556;18.728;2023-04-20T04:15:12;99524.19;;;20.26;40.45
51249;BME280;39642;47.556;18.728;2023-04-20T04:17:38;99530.34;;;20.27;40.54
51249;BME280;39642;47.556;18.728;2023-04-20T04:20:04;99526.81;;;20.26;40.47
51249;BME280;39642;47.556;18.728;2023-04-20T04:22:32;99534.75;;;20.26;40.48
51249;BME280;39642;47.556;18.728;2023-04-20T04:24:58;99531.25;;;20.26;40.55
51249;BME280;39642;47.556;18.728;2023-04-20T04:27:25;99537.41;;;20.26;40.36
51249;BME280;39642;47.556;18.728;2023-04-20T04:29:54;99532.09;;;20.26;40.26
51249;BME280;39642;47.556;18.728;2023-04-20T04:32:22;99532.09;;;20.26;40.02
51249;BME280;39642;47.556;18.728;2023-04-20T04:34:48;99530.41;;;20.25;40.16
51249;BME280;39642;47.556;18.728;2023-04-20T04:37:14;99530.41;;;20.25;40.12
51249;BME280;39642;47.556;18.728;2023-04-20T04:39:40;99533.06;;;20.25;40.08
51249;BME280;39642;47.556;18.728;2023-04-20T04:42:06;99533.06;;;20.25;39.69
51249;BME280;39642;47.556;18.728;2023-04-20T04:44:33;99537.50;;;20.25;39.81
51249;BME280;39642;47.556;18.728;2023-04-20T04:47:01;99540.16;;;20.25;40.74
51249;BME280;39642;47.556;18.728;2023-04-20T04:49:27;99547.25;;;20.24;40.64
51249;BME280;39642;47.556;18.728;2023-04-20T04:51:54;99542.81;;;20.25;40.77
51249;BME280;39642;47.556;18.728;2023-04-20T04:54:20;99541.00;;;20.25;40.74
51249;BME280;39642;47.556;18.728;2023-04-20T04:56:46;99541.09;;;20.24;40.34
51249;BME280;39642;47.556;18.728;2023-04-20T04:59:12;99543.84;;;20.22;40.59
51249;BME280;39642;47.556;18.728;2023-04-20T05:01:38;99540.31;;;20.22;41.23
51249;BME280;39642;47.556;18.728;2023-04-20T05:04:04;99539.47;;;20.21;40.85
51249;BME280;39642;47.556;18.728;2023-04-20T05:06:30;99539.41;;;20.23;40.56
51249;BME280;39642;47.556;18.728;2023-04-20T05:08:56;99542.88;;;20.23;40.78
51249;BME280;39642;47.556;18.728;2023-04-20T05:11:21;99542.81;;;20.25;40.47
51249;BME280;39642;47.556;18.728;2023-04-20T05:13:47;99546.28;;;20.25;40.39
51249;BME280;39642;47.556;18.728;2023-04-20T05:16:15;99541.97;;;20.24;40.65
51249;BME280;39642;47.556;18.728;2023-04-20T05:18:53;99542.81;;;20.25;40.58
51249;BME280;39642;47.556;18.728;2023-04-20T05:21:22;99550.53;;;20.28;40.81
51249;BME280;39642;47.556;18.728;2023-04-20T05:23:48;99546.00;;;20.30;42.39
51249;BME280;39642;47.556;18.728;2023-04-20T05:26:26;99547.59;;;20.32;41.61
51249;BME280;39642;47.556;18.728;2023-04-20T05:28:54;99545.44;;;20.39;42.54
51249;BME280;39642;47.556;18.728;2023-04-20T05:31:20;99552.16;;;20.45;43.18
51249;BME280;39642;47.556;18.728;2023-04-20T05:33:45;99554.31;;;20.52;42.71
51249;BME280;39642;47.556;18.728;2023-04-20T05:36:11;99548.81;;;20.55;42.04
51249;BME280;39642;47.556;18.728;2023-04-20T05:38:37;99553.34;;;20.53;41.29
51249;BME280;39642;47.556;18.728;2023-04-20T05:41:03;99557.25;;;20.48;41.51
51249;BME280;39642;47.556;18.728;2023-04-20T05:43:30;99553.84;;;20.46;41.53
51249;BME280;39642;47.556;18.728;2023-04-20T05:45:55;99556.56;;;20.44;41.92
51249;BME280;39642;47.556;18.728;2023-04-20T05:48:21;99555.81;;;20.42;41.96
51249;BME280;39642;47.556;18.728;2023-04-20T05:50:47;99552.44;;;20.40;41.53
51249;BME280;39642;47.556;18.728;2023-04-20T05:53:13;99549.13;;;20.36;41.57
51249;BME280;39642;47.556;18.728;2023-04-20T05:55:39;99554.41;;;20.36;41.63
51249;BME280;39642;47.556;18.728;2023-04-20T05:58:05;99557.91;;;20.37;41.90
51249;BME280;39642;47.556;18.728;2023-04-20T06:00:31;99561.28;;;20.39;41.66
51249;BME280;39642;47.556;18.728;2023-04-20T06:02:57;99569.22;;;20.39;41.50
51249;BME280;39642;47.556;18.728;2023-04-20T06:05:23;99562.25;;;20.38;42.05
51249;BME280;39642;47.556;18.728;2023-04-20T06:07:49;99570.19;;;20.38;41.51
51249;BME280;39642;47.556;18.728;2023-04-20T06:10:15;99573.75;;;20.37;41.45
51249;BME280;39642;47.556;18.728;2023-04-20T06:12:40;99574.59;;;20.37;41.82
51249;BME280;39642;47.556;18.728;2023-04-20T06:15:07;99578.12;;;20.38;41.86
51249;BME280;39642;47.556;18.728;2023-04-20T06:17:36;99573.69;;;20.38;41.24
51249;BME280;39642;47.556;18.728;2023-04-20T06:20:04;99573.69;;;20.38;41.22
51249;BME280;39642;47.556;18.728;2023-04-20T06:22:31;99575.38;;;20.39;41.22
51249;BME280;39642;47.556;18.728;2023-04-20T06:24:57;99575.38;;;20.39;41.11
51249;BME280;39642;47.556;18.728;2023-04-20T06:27:24;99578.75;;;20.42;41.34
51249;BME280;39642;47.556;18.728;2023-04-20T06:29:50;99577.72;;;20.44;41.85
51249;BME280;39642;47.556;18.728;2023-04-20T06:32:16;99577.62;;;20.46;41.82
51249;BME280;39642;47.556;18.728;2023-04-20T06:34:42;99581.13;;;20.46;42.52
51249;BME280;39642;47.556;18.728;2023-04-20T06:37:08;99580.19;;;20.47;42.74
51249;BME280;39642;47.556;18.728;2023-04-20T06:39:34;99584.53;;;20.48;42.48
51249;BME280;39642;47.556;18.728;2023-04-20T06:42:00;99584.44;;;20.50;41.43
51249;BME280;39642;47.556;18.728;2023-04-20T06:44:27;99586.12;;;20.51;41.42
51249;BME280;39642;47.556;18.728;2023-04-20T06:46:53;99583.50;;;20.51;41.24
51249;BME280;39642;47.556;18.728;2023-04-20T06:56:05;99581.81;;;20.50;41.97
51249;BME280;39642;47.556;18.728;2023-04-20T06:58:31;99586.72;;;20.56;41.99
51249;BME280;39642;47.556;18.728;2023-04-20T07:00:57;99581.34;;;20.57;42.44
51249;BME280;39642;47.556;18.728;2023-04-20T07:03:23;99582.09;;;20.59;41.88
51249;BME280;39642;47.556;18.728;2023-04-20T07:05:49;99586.56;;;20.59;41.82
51249;BME280;39642;47.556;18.728;2023-04-20T07:08:15;99585.59;;;20.60;42.00
51249;BME280;39642;47.556;18.728;2023-04-20T07:10:41;99588.06;;;20.63;42.28
51249;BME280;39642;47.556;18.728;2023-04-20T07:13:07;99587.09;;;20.64;42.42
51249;BME280;39642;47.556;18.728;2023-04-20T07:15:32;99591.47;;;20.65;42.68
51249;BME280;39642;47.556;18.728;2023-04-20T07:17:58;99588.72;;;20.67;43.13
51249;BME280;39642;47.556;18.728;2023-04-20T07:20:24;99590.34;;;20.69;43.19
51249;BME280;39642;47.556;18.728;2023-04-20T07:22:50;99583.25;;;20.70;43.58
51249;BME280;39642;47.556;18.728;2023-04-20T07:25:16;99594.66;;;20.70;43.18
51249;BME280;39642;47.556;18.728;2023-04-20T07:27:42;99594.59;;;20.72;42.28
51249;BME280;39642;47.556;18.728;2023-04-20T07:30:09;99595.34;;;20.74;41.46
51249;BME280;39642;47.556;18.728;2023-04-20T07:32:36;99598.84;;;20.74;42.36
51249;BME280;39642;47.556;18.728;2023-04-20T07:35:02;99596.19;;;20.74;41.54
51249;BME280;39642;47.556;18.728;2023-04-20T07:37:28;99599.75;;;20.73;41.78
51249;BME280;39642;47.556;18.728;2023-04-20T07:39:54;99592.78;;;20.72;41.61
51249;BME280;39642;47.556;18.728;2023-04-20T07:42:20;99596.28;;;20.73;42.14
51249;BME280;39642;47.556;18.728;2023-04-20T07:44:46;99596.28;;;20.73;43.11
51249;BME280;39642;47.556;18.728;2023-04-20T07:47:13;99600.62;;;20.74;42.03
51249;BME280;39642;47.556;18.728;2023-04-20T07:49:39;99598.06;;;20.72;41.61
51249;BME280;39642;47.556;18.728;2023-04-20T07:52:06;99600.62;;;20.74;41.53
51249;BME280;39642;47.556;18.728;2023-04-20T07:54:32;99598.84;;;20.74;41.51
51249;BME280;39642;47.556;18.728;2023-04-20T07:56:58;99593.62;;;20.73;41.51
51249;BME280;39642;47.556;18.728;2023-04-20T07:59:24;99594.38;;;20.75;41.96
51249;BME280;39642;47.556;18.728;2023-04-20T08:01:50;99595.22;;;20.75;41.89
51249;BME280;39642;47.556;18.728;2023-04-20T08:04:16;99597.03;;;20.75;42.04
51249;BME280;39642;47.556;18.728;2023-04-20T08:06:42;99596.19;;;20.74;42.03
51249;BME280;39642;47.556;18.728;2023-04-20T08:09:07;99598.84;;;20.74;42.58
51249;BME280;39642;47.556;18.728;2023-04-20T08:11:34;99596.34;;;20.71;42.66
51249;BME280;39642;47.556;18.728;2023-04-20T08:14:00;99593.81;;;20.70;42.08
51249;BME280;39642;47.556;18.728;2023-04-20T08:16:26;99591.28;;;20.68;42.28
51249;BME280;39642;47.556;18.728;2023-04-20T08:18:52;99600.16;;;20.67;42.21
51249;BME280;39642;47.556;18.728;2023-04-20T08:21:18;99593.16;;;20.66;41.66
51249;BME280;39642;47.556;18.728;2023-04-20T08:23:47;99593.25;;;20.65;41.92
51249;BME280;39642;47.556;18.728;2023-04-20T08:26:16;99596.75;;;20.65;41.65
51249;BME280;39642;47.556;18.728;2023-04-20T08:28:42;99596.84;;;20.64;41.65
51249;BME280;39642;47.556;18.728;2023-04-20T08:31:10;99596.84;;;20.64;41.76
51249;BME280;39642;47.556;18.728;2023-04-20T08:33:36;99596.09;;;20.62;42.56
51249;BME280;39642;47.556;18.728;2023-04-20T08:36:02;99597.87;;;20.61;43.05
51249;BME280;39642;47.556;18.728;2023-04-20T08:38:29;99597.13;;;20.59;42.73
51249;BME280;39642;47.556;18.728;2023-04-20T08:40:55;99592.81;;;20.58;42.25
51249;BME280;39642;47.556;18.728;2023-04-20T08:43:21;99594.41;;;20.61;42.19
51249;BME280;39642;47.556;18.728;2023-04-20T08:45:48;99594.56;;;20.57;41.80
51249;BME280;39642;47.556;18.728;2023-04-20T08:48:16;99584.66;;;20.61;42.30
51249;BME280;39642;47.556;18.728;2023-04-20T08:50:42;99589.59;;;20.67;41.77
51249;BME280;39642;47.556;18.728;2023-04-20T08:53:08;99590.34;;;20.69;41.65
51249;BME280;39642;47.556;18.728;2023-04-20T08:55:34;99592.97;;;20.69;41.15
51249;BME280;39642;47.556;18.728;2023-04-20T08:58:00;99596.34;;;20.71;41.91
51249;BME280;39642;47.556;18.728;2023-04-20T09:00:26;99594.19;;;20.78;41.51
51249;BME280;39642;47.556;18.728;2023-04-20T09:02:54;99592.56;;;20.75;42.66
51249;BME280;39642;47.556;18.728;2023-04-20T09:05:28;99599.66;;;20.75;43.94
51249;BME280;39642;47.556;18.728;2023-04-20T09:07:56;99595.34;;;20.74;43.52
51249;BME280;39642;47.556;18.728;2023-04-20T09:10:24;99590.91;;;20.74;41.32
51249;BME280;39642;47.556;18.728;2023-04-20T09:12:51;99590.06;;;20.74;40.55
51249;BME280;39642;47.556;18.728;2023-04-20T09:15:28;99585.88;;;20.70;40.41
51249;BME280;39642;47.556;18.728;2023-04-20T09:17:56;99587.03;;;20.66;40.57
51249;BME280;39642;47.556;18.728;2023-04-20T09:20:27;99584.47;;;20.64;40.66
51249;BME280;39642;47.556;18.728;2023-04-20T09:22:53;99588.91;;;20.64;40.75
51249;BME280;39642;47.556;18.728;2023-04-20T09:25:19;99585.41;;;20.63;40.84
51249;BME280;39642;47.556;18.728;2023-04-20T09:27:59;99586.34;;;20.62;40.94
51249;BME280;39642;47.556;18.728;2023-04-20T09:30:39;99587.41;;;20.59;40.70
51249;BME280;39642;47.556;18.728;2023-04-20T09:33:05;99584.06;;;20.56;40.89
51249;BME280;39642;47.556;18.728;2023-04-20T09:35:43;99588.59;;;20.54;40.87
51249;BME280;39642;47.556;18.728;2023-04-20T09:38:15;99579.91;;;20.52;40.82
51249;BME280;39642;47.556;18.728;2023-04-20T09:40:41;99578.41;;;20.48;41.07
51249;BME280;39642;47.556;18.728;2023-04-20T09:43:26;99582.72;;;20.49;42.56
51249;BME280;39642;47.556;18.728;2023-04-20T09:45:53;99577.28;;;20.52;42.04
51249;BME280;39642;47.556;18.728;2023-04-20T09:48:20;99575.13;;;20.58;42.05
51249;BME280;39642;47.556;18.728;2023-04-20T09:50:47;99578.12;;;20.67;41.71
51249;BME280;39642;47.556;18.728;2023-04-20T09:53:17;99582.19;;;20.72;41.69
51249;BME280;39642;47.556;18.728;2023-04-20T09:55:48;99572.09;;;20.79;41.93
51249;BME280;39642;47.556;18.728;2023-04-20T09:58:17;99569.53;;;20.77;41.80
51249;BME280;39642;47.556;18.728;2023-04-20T10:00:44;99570.38;;;20.78;41.75
51249;BME280;39642;47.556;18.728;2023-04-20T10:03:10;99574.81;;;20.77;41.19
51249;BME280;39642;47.556;18.728;2023-04-20T10:05:37;99573.13;;;20.76;41.39
51249;BME280;39642;47.556;18.728;2023-04-20T10:08:04;99576.69;;;20.75;41.49
51249;BME280;39642;47.556;18.728;2023-04-20T10:10:42;99568.88;;;20.74;41.37
51249;BME280;39642;47.556;18.728;2023-04-20T10:13:08;99570.56;;;20.75;41.53
51249;BME280;39642;47.556;18.728;2023-04-20T10:15:38;99567.06;;;20.74;41.17
51249;BME280;39642;47.556;18.728;2023-04-20T10:18:23;99572.38;;;20.74;40.70
51249;BME280;39642;47.556;18.728;2023-04-20T10:20:50;99568.00;;;20.73;40.73
51249;BME280;39642;47.556;18.728;2023-04-20T10:23:16;99561.78;;;20.74;41.13
51249;BME280;39642;47.556;18.728;2023-04-20T10:25:59;99554.78;;;20.73;40.71
51249;BME280;39642;47.556;18.728;2023-04-20T10:28:39;99559.22;;;20.73;40.21
51249;BME280;39642;47.556;18.728;2023-04-20T10:31:06;99551.50;;;20.70;40.16
51249;BME280;39642;47.556;18.728;2023-04-20T10:33:33;99560.38;;;20.69;40.43
51249;BME280;39642;47.556;18.728;2023-04-20T10:35:59;99549.91;;;20.67;40.41
51249;BME280;39642;47.556;18.728;2023-04-20T10:38:34;99550.75;;;20.68;40.04
51249;BME280;39642;47.556;18.728;2023-04-20T10:41:08;99555.06;;;20.69;39.90
51249;BME280;39642;47.556;18.728;2023-04-20T10:43:34;99545.53;;;20.66;37.56
51249;BME280;39642;47.556;18.728;2023-04-20T10:46:00;99546.38;;;20.67;38.96
51249;BME280;39642;47.556;18.728;2023-04-20T10:48:26;99545.91;;;20.74;39.53
51249;BME280;39642;47.556;18.728;2023-04-20T10:50:52;99539.56;;;20.77;39.63
51249;BME280;39642;47.556;18.728;2023-04-20T10:53:20;99536.84;;;20.78;38.94
51249;BME280;39642;47.556;18.728;2023-04-20T10:55:46;99541.16;;;20.79;38.84
51249;BME280;39642;47.556;18.728;2023-04-20T10:58:23;99530.59;;;20.79;39.88
51249;BME280;39642;47.556;18.728;2023-04-20T11:01:03;99525.50;;;20.76;40.25
51249;BME280;39642;47.556;18.728;2023-04-20T11:03:30;99520.37;;;20.73;40.14
51249;BME280;39642;47.556;18.728;2023-04-20T11:05:57;99522.19;;;20.73;40.24
51249;BME280;39642;47.556;18.728;2023-04-20T11:08:39;99520.59;;;20.70;39.92
51249;BME280;39642;47.556;18.728;2023-04-20T11:11:26;99531.16;;;20.70;39.96
51249;BME280;39642;47.556;18.728;2023-04-20T11:14:09;99523.31;;;20.69;39.96
51249;BME280;39642;47.556;18.728;2023-04-20T11:16:36;99527.84;;;20.67;39.90
51249;BME280;39642;47.556;18.728;2023-04-20T11:19:02;99527.09;;;20.65;40.15
51249;BME280;39642;47.556;18.728;2023-04-20T11:24:03;99521.47;;;20.56;40.57
51249;BME280;39642;47.556;18.728;2023-04-20T11:26:36;99517.38;;;20.51;39.47
51249;BME280;39642;47.556;18.728;2023-04-20T11:29:02;99516.59;;;20.49;39.49
51249;BME280;39642;47.556;18.728;2023-04-20T11:31:28;99516.53;;;20.50;39.07
51249;BME280;39642;47.556;18.728;2023-04-20T11:33:54;99511.22;;;20.50;39.55
51249;BME280;39642;47.556;18.728;2023-04-20T11:36:21;99507.75;;;20.50;39.93
51249;BME280;39642;47.556;18.728;2023-04-20T11:38:48;99512.81;;;20.53;40.82
51249;BME280;39642;47.556;18.728;2023-04-20T11:41:15;99515.13;;;20.59;40.91
51249;BME280;39642;47.556;18.728;2023-04-20T11:43:41;99512.19;;;20.64;40.34
51249;BME280;39642;47.556;18.728;2023-04-20T11:46:18;99513.78;;;20.66;40.14
51249;BME280;39642;47.556;18.728;2023-04-20T11:48:45;99509.25;;;20.68;39.97
51249;BME280;39642;47.556;18.728;2023-04-20T11:51:12;99513.63;;;20.69;40.89
51249;BME280;39642;47.556;18.728;2023-04-20T11:53:39;99510.00;;;20.70;40.48
51249;BME280;39642;47.556;18.728;2023-04-20T11:56:06;99507.16;;;20.73;39.80
51249;BME280;39642;47.556;18.728;2023-04-20T11:58:33;99512.19;;;20.64;36.24
51249;BME280;39642;47.556;18.728;2023-04-20T12:00:59;99511.63;;;20.58;36.58
51249;BME280;39642;47.556;18.728;2023-04-20T12:03:25;99512.56;;;20.57;38.72
51249;BME280;39642;47.556;18.728;2023-04-20T12:05:52;99508.16;;;20.58;38.17
51249;BME280;39642;47.556;18.728;2023-04-20T12:08:18;99510.69;;;20.59;38.63
51249;BME280;39642;47.556;18.728;2023-04-20T12:10:43;99514.16;;;20.60;37.88
51249;BME280;39642;47.556;18.728;2023-04-20T12:13:09;99505.31;;;20.61;38.11
51249;BME280;39642;47.556;18.728;2023-04-20T12:15:35;99508.88;;;20.60;38.58
51249;BME280;39642;47.556;18.728;2023-04-20T12:18:01;99503.59;;;20.60;38.85
51249;BME280;39642;47.556;18.728;2023-04-20T12:20:27;99504.63;;;20.57;38.40
51249;BME280;39642;47.556;18.728;2023-04-20T12:22:53;99507.44;;;20.54;39.16
51249;BME280;39642;47.556;18.728;2023-04-20T12:25:19;99498.50;;;20.57;38.55
51249;BME280;39642;47.556;18.728;2023-04-20T12:27:45;99504.72;;;20.56;38.77
51249;BME280;39642;47.556;18.728;2023-04-20T12:30:11;99503.84;;;20.55;39.07
51249;BME280;39642;47.556;18.728;2023-04-20T12:32:37;99499.34;;;20.57;39.56
51249;BME280;39642;47.556;18.728;2023-04-20T12:35:04;99492.44;;;20.55;39.03
51249;BME280;39642;47.556;18.728;2023-04-20T12:37:30;99495.91;;;20.55;39.18
51249;BME280;39642;47.556;18.728;2023-04-20T12:39:56;99497.66;;;20.56;39.40
51249;BME280;39642;47.556;18.728;2023-04-20T12:42:22;99494.06;;;20.57;39.52
51249;BME280;39642;47.556;18.728;2023-04-20T12:44:51;99499.34;;;20.57;40.26
51249;BME280;39642;47.556;18.728;2023-04-20T12:47:18;99494.72;;;20.61;40.25
51249;BME280;39642;47.556;18.728;2023-04-20T12:49:44;99483.94;;;20.64;40.85
51249;BME280;39642;47.556;18.728;2023-04-20T12:52:10;99486.50;;;20.66;39.55
51249;BME280;39642;47.556;18.728;2023-04-20T12:54:36;99483.00;;;20.65;39.57
51249;BME280;39642;47.556;18.728;2023-04-20T12:57:02;99483.00;;;20.65;40.36
51249;BME280;39642;47.556;18.728;2023-04-20T12:59:28;99480.16;;;20.68;40.21